Time;durP1;ratioP1;P1;durP2;ratioP2;P2;SDS_P1;SDS_P2;PMS_P1;PMS_P2;Temp;Humidity;BMP_temperature;BMP_pressure;BME280_temperature;BME280_humidity;BME280_pressure;Samples;Min_cycle;Max_cycle;Signal;HPM_P1;HPM_P2
2024/04/14 00:01:06;;;;;;;0.20;0.10;;;;;;;-146.84;100.00;66378.44;5492098;26;20226;-67
2024/04/14 00:03:32;;;;;;;0.20;0.10;;;;;;;-146.84;100.00;66378.44;5488649;26;20269;-66
2024/04/14 00:05:58;;;;;;;0.20;0.10;;;;;;;-146.84;100.00;66378.44;5492162;26;21174;-67
2024/04/14 00:08:24;;;;;;;0.20;0.10;;;;;;;-146.84;100.00;66378.44;5479902;26;20231;-67
2024/04/14 00:10:51;;;;;;;0.20;0.10;;;;;;;-146.84;100.00;66378.44;5489849;26;20673;-66
2024/04/14 00:13:17;;;;;;;0.20;0.10;;;;;;;-146.84;100.00;66378.44;5485429;26;20274;-66
2024/04/14 00:15:43;;;;;;;0.20;0.10;;;;;;;-146.84;100.00;66378.44;5496884;26;20230;-66
2024/04/14 00:18:09;;;;;;;0.20;0.10;;;;;;;-146.84;100.00;66378.44;5463740;26;20697;-66
2024/04/14 00:20:35;;;;;;;0.20;0.10;;;;;;;-146.84;100.00;66378.44;5488997;26;20281;-66
2024/04/14 00:23:01;;;;;;;0.20;0.10;;;;;;;-146.84;100.00;66378.44;5491352;26;20604;-66
2024/04/14 00:25:27;;;;;;;0.20;0.10;;;;;;;-146.84;100.00;66378.44;5484326;26;20356;-67
2024/04/14 00:27:53;;;;;;;0.20;0.10;;;;;;;-146.84;100.00;66378.44;5503567;26;20312;-66
2024/04/14 00:30:19;;;;;;;0.20;0.10;;;;;;;-146.84;100.00;66378.44;5487077;26;20242;-67
2024/04/14 00:32:47;;;;;;;0.20;0.10;;;;;;;-146.84;100.00;66378.44;5487344;26;20626;-66
2024/04/14 00:35:13;;;;;;;0.20;0.10;;;;;;;-146.84;100.00;66378.44;5484706;26;20764;-66
2024/04/14 00:37:39;;;;;;;0.20;0.17;;;;;;;-146.84;100.00;66378.44;5498277;26;20227;-67
2024/04/14 00:40:06;;;;;;;0.20;0.10;;;;;;;-146.84;100.00;66378.44;5500018;26;20261;-67
2024/04/14 00:42:32;;;;;;;0.20;0.10;;;;;;;-146.84;100.00;66378.44;5503933;26;20237;-66
2024/04/14 00:44:58;;;;;;;0.20;0.10;;;;;;;-146.84;100.00;66378.44;5500769;26;20225;-66
2024/04/14 00:47:24;;;;;;;0.20;0.10;;;;;;;-146.84;100.00;66378.44;5502660;26;20671;-66
2024/04/14 00:49:51;;;;;;;0.20;0.10;;;;;;;-146.84;100.00;66378.44;5475499;26;20239;-66
2024/04/14 00:52:17;;;;;;;0.20;0.10;;;;;;;-146.84;100.00;66378.44;5500493;26;20226;-66
2024/04/14 00:54:43;;;;;;;0.20;0.10;;;;;;;-146.84;100.00;66378.44;5494507;26;20337;-66
2024/04/14 00:57:09;;;;;;;0.20;0.10;;;;;;;-146.84;100.00;66378.44;5489173;26;20298;-66
2024/04/14 00:59:36;;;;;;;0.20;0.10;;;;;;;-146.84;100.00;66378.44;5503300;26;20260;-66
2024/04/14 01:02:02;;;;;;;0.20;0.10;;;;;;;-146.84;100.00;66378.44;5482501;26;20227;-66
2024/04/14 01:04:29;;;;;;;0.20;0.10;;;;;;;-146.84;100.00;66378.44;5486230;26;20246;-66
2024/04/14 01:06:55;;;;;;;0.20;0.10;;;;;;;-146.84;100.00;66378.44;5489802;26;20243;-66
2024/04/14 01:09:21;;;;;;;0.20;0.10;;;;;;;-146.84;100.00;66378.44;5498536;26;20229;-66
2024/04/14 01:11:47;;;;;;;0.20;0.10;;;;;;;-146.84;100.00;66378.44;5492757;26;20278;-66
2024/04/14 01:14:17;;;;;;;0.20;0.10;;;;;;;-146.84;100.00;66378.44;5494578;26;20646;-66
2024/04/14 01:16:43;;;;;;;0.20;0.10;;;;;;;-146.84;100.00;66378.44;5485588;26;20243;-66
2024/04/14 01:19:10;;;;;;;0.20;0.10;;;;;;;-146.84;100.00;66378.44;5481733;26;20269;-66
2024/04/14 01:21:36;;;;;;;0.20;0.10;;;;;;;-146.84;100.00;66378.44;5452338;26;20235;-66
2024/04/14 01:24:02;;;;;;;0.20;0.10;;;;;;;-146.84;100.00;66378.44;5482370;26;20224;-66
2024/04/14 01:26:28;;;;;;;0.20;0.10;;;;;;;-146.84;100.00;66378.44;5486421;26;20244;-66
2024/04/14 01:28:54;;;;;;;0.20;0.10;;;;;;;-146.84;100.00;66378.44;5461185;26;20281;-66
2024/04/14 01:31:20;;;;;;;0.20;0.10;;;;;;;-146.84;100.00;66378.44;5474547;26;20331;-66
2024/04/14 01:33:47;;;;;;;0.20;0.10;;;;;;;-146.84;100.00;66378.44;5483226;26;20349;-66
2024/04/14 01:36:13;;;;;;;0.20;0.10;;;;;;;-146.84;100.00;66378.44;5470997;26;20314;-67
2024/04/14 01:38:39;;;;;;;0.20;0.10;;;;;;;-146.84;100.00;66378.44;5483926;26;20223;-66
2024/04/14 01:41:05;;;;;;;0.20;0.10;;;;;;;-146.84;100.00;66378.44;5484848;26;20338;-66
2024/04/14 01:43:32;;;;;;;0.20;0.10;;;;;;;-146.84;100.00;66378.44;5489635;26;20268;-66
2024/04/14 01:45:58;;;;;;;0.20;0.10;;;;;;;-146.84;100.00;66378.44;5482244;26;20274;-66
2024/04/14 01:48:24;;;;;;;0.20;0.10;;;;;;;-146.84;100.00;66378.44;5478126;26;20285;-66
2024/04/14 01:50:50;;;;;;;0.20;0.10;;;;;;;-146.84;100.00;66378.44;5494529;26;20268;-66
2024/04/14 01:53:16;;;;;;;0.20;0.10;;;;;;;-146.84;100.00;66378.44;5484117;26;20219;-66
2024/04/14 01:55:43;;;;;;;0.20;0.10;;;;;;;-146.84;100.00;66378.44;5501456;26;20244;-66
2024/04/14 01:58:10;;;;;;;0.20;0.10;;;;;;;-146.84;100.00;66378.44;5489495;26;20289;-66
2024/04/14 02:00:36;;;;;;;0.20;0.10;;;;;;;-146.84;100.00;66378.44;5487611;26;20732;-66
2024/04/14 02:03:02;;;;;;;0.20;0.10;;;;;;;-146.84;100.00;66378.44;5492293;26;20290;-66
2024/04/14 02:05:28;;;;;;;0.20;0.10;;;;;;;-146.84;100.00;66378.44;5467034;26;20243;-66
2024/04/14 02:07:54;;;;;;;0.20;0.10;;;;;;;-146.84;100.00;66378.44;5491646;26;20230;-66
2024/04/14 02:10:20;;;;;;;0.20;0.10;;;;;;;-146.84;100.00;66378.44;5494098;26;20235;-66
2024/04/14 02:12:47;;;;;;;0.20;0.10;;;;;;;-146.84;100.00;66378.44;5481392;26;20261;-66
2024/04/14 02:15:13;;;;;;;0.20;0.10;;;;;;;-146.84;100.00;66378.44;5492126;26;20238;-66
2024/04/14 02:17:40;;;;;;;0.20;0.10;;;;;;;-146.84;100.00;66378.44;5491911;26;20230;-66
2024/04/14 02:20:06;;;;;;;0.20;0.10;;;;;;;-146.84;100.00;66378.44;5488057;26;20227;-67
2024/04/14 02:22:32;;;;;;;0.20;0.10;;;;;;;-146.84;100.00;66378.44;5492812;26;20334;-66
2024/04/14 02:24:58;;;;;;;0.20;0.10;;;;;;;-146.84;100.00;66378.44;5488276;26;20231;-66
2024/04/14 02:27:24;;;;;;;0.20;0.10;;;;;;;-146.84;100.00;66378.44;5481789;26;20286;-66
2024/04/14 02:29:51;;;;;;;0.20;0.10;;;;;;;-146.84;100.00;66378.44;5485824;26;20343;-67
2024/04/14 02:32:18;;;;;;;0.20;0.10;;;;;;;-146.84;100.00;66378.44;5486447;26;20325;-66
2024/04/14 02:34:44;;;;;;;0.20;0.10;;;;;;;-146.84;100.00;66378.44;5482161;26;20288;-66
2024/04/14 02:37:10;;;;;;;0.20;0.10;;;;;;;-146.84;100.00;66378.44;5490015;26;20290;-67
2024/04/14 02:39:37;;;;;;;0.20;0.10;;;;;;;-146.84;100.00;66378.44;5493403;26;20231;-67
2024/04/14 02:42:03;;;;;;;0.20;0.10;;;;;;;-146.84;100.00;66378.44;5485870;26;20687;-67
2024/04/14 02:44:29;;;;;;;0.20;0.15;;;;;;;-146.84;100.00;66378.44;5481220;26;20306;-67
2024/04/14 02:46:56;;;;;;;0.20;0.13;;;;;;;-146.84;100.00;66378.44;5482639;26;20281;-66
2024/04/14 02:49:22;;;;;;;0.20;0.10;;;;;;;-146.84;100.00;66378.44;5482405;26;20244;-66
2024/04/14 02:51:48;;;;;;;0.20;0.10;;;;;;;-146.84;100.00;66378.44;5481298;26;20222;-66
2024/04/14 02:54:14;;;;;;;0.20;0.10;;;;;;;-146.84;100.00;66378.44;5480716;26;20281;-67
2024/04/14 02:56:40;;;;;;;0.20;0.10;;;;;;;-146.84;100.00;66378.44;5496251;25;20283;-66
2024/04/14 02:59:06;;;;;;;0.20;0.10;;;;;;;-146.84;100.00;66378.44;5496413;26;20262;-65
2024/04/14 03:01:32;;;;;;;0.20;0.10;;;;;;;-146.84;100.00;66378.44;5495861;26;20231;-66
2024/04/14 03:03:59;;;;;;;0.20;0.10;;;;;;;-146.84;100.00;66378.44;5481425;26;20230;-66
2024/04/14 03:06:25;;;;;;;0.20;0.10;;;;;;;-146.84;100.00;66378.44;5486001;26;20276;-66
2024/04/14 03:08:51;;;;;;;0.20;0.10;;;;;;;-146.84;100.00;66378.44;5487848;26;20228;-68
2024/04/14 03:11:17;;;;;;;0.20;0.10;;;;;;;-146.84;100.00;66378.44;5495374;26;20222;-66
2024/04/14 03:13:43;;;;;;;0.20;0.10;;;;;;;-146.84;100.00;66378.44;5481040;26;20306;-66
2024/04/14 03:16:09;;;;;;;0.20;0.10;;;;;;;-146.84;100.00;66378.44;5492501;26;20594;-66
2024/04/14 03:18:35;;;;;;;0.20;0.10;;;;;;;-146.84;100.00;66378.44;5482716;26;20231;-66
2024/04/14 03:21:02;;;;;;;0.20;0.20;;;;;;;-146.84;100.00;66378.44;5495640;26;20222;-66
2024/04/14 03:23:29;;;;;;;0.20;0.10;;;;;;;-146.84;100.00;66378.44;5481114;26;20556;-66
2024/04/14 03:25:56;;;;;;;0.20;0.10;;;;;;;-146.84;100.00;66378.44;5493984;26;20235;-66
2024/04/14 03:28:23;;;;;;;0.20;0.10;;;;;;;-146.84;100.00;66378.44;5481912;26;20276;-66
2024/04/14 03:30:49;;;;;;;0.20;0.10;;;;;;;-146.84;100.00;66378.44;5511997;25;20231;-66
2024/04/14 03:33:15;;;;;;;0.20;0.10;;;;;;;-146.84;100.00;66378.44;5479653;26;20712;-66
2024/04/14 03:35:41;;;;;;;0.20;0.10;;;;;;;-146.84;100.00;66378.44;5475926;26;20307;-66
2024/04/14 03:38:08;;;;;;;0.20;0.10;;;;;;;-146.84;100.00;66378.44;5484837;26;20231;-66
2024/04/14 03:40:34;;;;;;;0.20;0.10;;;;;;;-146.84;100.00;66378.44;5481112;26;20289;-66
2024/04/14 03:43:00;;;;;;;0.20;0.20;;;;;;;-146.84;100.00;66378.44;5489022;26;20598;-66
2024/04/14 03:45:26;;;;;;;0.20;0.10;;;;;;;-146.84;100.00;66378.44;5483654;26;20338;-66
2024/04/14 03:47:52;;;;;;;0.20;0.10;;;;;;;-146.84;100.00;66378.44;5506031;26;20234;-66
2024/04/14 03:50:19;;;;;;;0.20;0.10;;;;;;;-146.84;100.00;66378.44;5485638;26;20234;-66
2024/04/14 03:52:45;;;;;;;0.20;0.10;;;;;;;-146.84;100.00;66378.44;5494265;26;20282;-66
2024/04/14 03:55:11;;;;;;;0.20;0.10;;;;;;;-146.84;100.00;66378.44;5470312;26;20234;-66
2024/04/14 03:57:37;;;;;;;0.20;0.10;;;;;;;-146.84;100.00;66378.44;5492691;26;20233;-66
2024/04/14 04:00:05;;;;;;;0.20;0.10;;;;;;;-146.84;100.00;66378.44;5490344;26;20231;-66
2024/04/14 04:02:31;;;;;;;0.20;0.10;;;;;;;-146.84;100.00;66378.44;5484637;26;20264;-67
2024/04/14 04:04:57;;;;;;;0.20;0.10;;;;;;;-146.84;100.00;66378.44;5496015;26;20539;-66
2024/04/14 04:07:23;;;;;;;0.20;0.10;;;;;;;-146.84;100.00;66378.44;5485819;26;20292;-66
2024/04/14 04:09:50;;;;;;;0.20;0.10;;;;;;;-146.84;100.00;66378.44;5486154;26;20606;-66
2024/04/14 04:12:17;;;;;;;0.20;0.10;;;;;;;-146.84;100.00;66378.44;5485780;26;20247;-66
2024/04/14 04:14:43;;;;;;;0.20;0.10;;;;;;;-146.84;100.00;66378.44;5483974;26;21366;-66
2024/04/14 04:17:09;;;;;;;0.20;0.10;;;;;;;-146.84;100.00;66378.44;5498732;26;20230;-66
2024/04/14 04:19:35;;;;;;;0.20;0.10;;;;;;;-146.84;100.00;66378.44;5489446;26;20296;-66
2024/04/14 04:22:02;;;;;;;0.20;0.10;;;;;;;-146.84;100.00;66378.44;5482523;26;20563;-66
2024/04/14 04:24:28;;;;;;;0.20;0.10;;;;;;;-146.84;100.00;66378.44;5493147;26;20227;-66
2024/04/14 04:26:54;;;;;;;0.20;0.10;;;;;;;-146.84;100.00;66378.44;5499463;26;20327;-66
2024/04/14 04:29:20;;;;;;;0.20;0.10;;;;;;;-146.84;100.00;66378.44;5483343;26;20340;-66
2024/04/14 04:31:47;;;;;;;0.20;0.10;;;;;;;-146.84;100.00;66378.44;5484037;26;20239;-66
2024/04/14 04:34:13;;;;;;;0.20;0.10;;;;;;;-146.84;100.00;66378.44;5491651;26;20265;-66
2024/04/14 04:36:39;;;;;;;0.20;0.10;;;;;;;-146.84;100.00;66378.44;5485143;26;20243;-66
2024/04/14 04:39:06;;;;;;;0.20;0.10;;;;;;;-146.84;100.00;66378.44;5496921;26;20343;-66
2024/04/14 04:41:32;;;;;;;0.20;0.10;;;;;;;-146.84;100.00;66378.44;5472716;26;20301;-66
2024/04/14 04:43:58;;;;;;;0.20;0.05;;;;;;;-146.84;100.00;66378.44;5495370;26;20223;-66
2024/04/14 04:46:24;;;;;;;0.20;0.10;;;;;;;-146.84;100.00;66378.44;5487325;26;20230;-67
2024/04/14 04:48:51;;;;;;;0.20;0.10;;;;;;;-146.84;100.00;66378.44;5485990;26;20227;-67
2024/04/14 04:51:18;;;;;;;0.20;0.10;;;;;;;-146.84;100.00;66378.44;5479153;26;20652;-66
2024/04/14 04:53:45;;;;;;;0.20;0.10;;;;;;;-146.84;100.00;66378.44;5481612;26;20235;-66
2024/04/14 04:56:11;;;;;;;0.20;0.10;;;;;;;-146.84;100.00;66378.44;5452066;26;20335;-66
2024/04/14 04:58:37;;;;;;;0.20;0.10;;;;;;;-146.84;100.00;66378.44;5499141;26;20299;-66
2024/04/14 05:01:03;;;;;;;0.20;0.10;;;;;;;-146.84;100.00;66378.44;5485306;26;20231;-66
2024/04/14 05:03:29;;;;;;;0.20;0.10;;;;;;;-146.84;100.00;66378.44;5502263;26;20286;-66
2024/04/14 05:05:55;;;;;;;0.20;0.10;;;;;;;-146.84;100.00;66378.44;5506332;26;20285;-66
2024/04/14 05:08:21;;;;;;;0.20;0.10;;;;;;;-146.84;100.00;66378.44;5488282;26;20269;-66
2024/04/14 05:10:47;;;;;;;0.20;0.10;;;;;;;-146.84;100.00;66378.44;5492036;26;20293;-66
2024/04/14 05:13:14;;;;;;;0.20;0.10;;;;;;;-146.84;100.00;66378.44;5492126;26;20715;-67
2024/04/14 05:15:41;;;;;;;0.20;0.10;;;;;;;-146.84;100.00;66378.44;5483109;26;20265;-66
2024/04/14 05:18:07;;;;;;;0.20;0.10;;;;;;;-146.84;100.00;66378.44;5498280;26;20651;-66
2024/04/14 05:20:34;;;;;;;0.20;0.10;;;;;;;-146.84;100.00;66378.44;5500979;26;20231;-67
2024/04/14 05:23:00;;;;;;;0.20;0.10;;;;;;;-146.84;100.00;66378.44;5494126;26;20231;-66
2024/04/14 05:25:26;;;;;;;0.20;0.10;;;;;;;-146.84;100.00;66378.44;5492508;26;20913;-67
2024/04/14 05:27:52;;;;;;;0.20;0.10;;;;;;;-146.84;100.00;66378.44;5491134;26;20234;-67
2024/04/14 05:30:18;;;;;;;0.20;0.10;;;;;;;-146.84;100.00;66378.44;5497256;26;20238;-67
2024/04/14 05:32:44;;;;;;;0.20;0.10;;;;;;;-146.84;100.00;66378.44;5483546;26;20270;-67
2024/04/14 05:35:12;;;;;;;0.20;0.10;;;;;;;-146.84;100.00;66378.44;5497182;26;20227;-66
2024/04/14 05:37:38;;;;;;;0.20;0.10;;;;;;;-146.84;100.00;66378.44;5483078;26;20238;-66
2024/04/14 05:40:05;;;;;;;0.20;0.10;;;;;;;-146.84;100.00;66378.44;5501704;26;20230;-66
2024/04/14 05:42:32;;;;;;;0.20;0.10;;;;;;;-146.84;100.00;66378.44;5483266;26;20294;-66
2024/04/14 05:44:58;;;;;;;0.20;0.10;;;;;;;-146.84;100.00;66378.44;5483850;26;20323;-66
2024/04/14 05:47:24;;;;;;;0.20;0.10;;;;;;;-146.84;100.00;66378.44;5457085;26;20238;-66
2024/04/14 05:49:51;;;;;;;0.20;0.10;;;;;;;-146.84;100.00;66378.44;5486359;26;20324;-66
2024/04/14 05:52:17;;;;;;;0.20;0.10;;;;;;;-146.84;100.00;66378.44;5483353;26;20235;-66
2024/04/14 05:54:43;;;;;;;0.20;0.10;;;;;;;-146.84;100.00;66378.44;5511413;25;20277;-66
2024/04/14 05:57:09;;;;;;;0.20;0.10;;;;;;;-146.84;100.00;66378.44;5485142;26;20231;-66
2024/04/14 05:59:35;;;;;;;0.20;0.10;;;;;;;-146.84;100.00;66378.44;5470697;26;20273;-65
2024/04/14 06:02:02;;;;;;;0.20;0.10;;;;;;;-146.84;100.00;66378.44;5483036;26;20226;-66
2024/04/14 06:04:28;;;;;;;0.20;0.10;;;;;;;-146.84;100.00;66378.44;5481303;26;20232;-67
2024/04/14 06:06:55;;;;;;;0.20;0.10;;;;;;;-146.84;100.00;66378.44;5481670;26;20246;-66
2024/04/14 06:09:23;;;;;;;0.20;0.10;;;;;;;-146.84;100.00;66378.44;5510008;26;20238;-66
2024/04/14 06:11:49;;;;;;;0.20;0.10;;;;;;;-146.84;100.00;66378.44;5484141;26;20231;-66
2024/04/14 06:14:16;;;;;;;0.20;0.10;;;;;;;-146.84;100.00;66378.44;5482569;26;20234;-66
2024/04/14 06:16:42;;;;;;;0.20;0.10;;;;;;;-146.84;100.00;66378.44;5484473;26;20231;-66
2024/04/14 06:19:08;;;;;;;0.20;0.10;;;;;;;-146.84;100.00;66378.44;5488765;26;20612;-66
2024/04/14 06:21:34;;;;;;;0.20;0.10;;;;;;;-146.84;100.00;66378.44;5473890;26;20238;-66
2024/04/14 06:24:00;;;;;;;0.20;0.10;;;;;;;-146.84;100.00;66378.44;5487809;26;20590;-66
2024/04/14 06:26:26;;;;;;;0.20;0.10;;;;;;;-146.84;100.00;66378.44;5483501;26;20270;-66
2024/04/14 06:28:52;;;;;;;0.20;0.10;;;;;;;-146.84;100.00;66378.44;5484126;26;20230;-66
2024/04/14 06:31:18;;;;;;;0.20;0.10;;;;;;;-146.84;100.00;66378.44;5494505;26;20278;-66
2024/04/14 06:33:45;;;;;;;0.20;0.10;;;;;;;-146.84;100.00;66378.44;5482697;26;20238;-66
2024/04/14 06:36:11;;;;;;;0.20;0.10;;;;;;;-146.84;100.00;66378.44;5495859;26;20733;-66
2024/04/14 06:38:38;;;;;;;0.20;0.10;;;;;;;-146.84;100.00;66378.44;5500477;26;20280;-66
2024/04/14 06:41:04;;;;;;;0.20;0.10;;;;;;;-146.84;100.00;66378.44;5485778;26;20590;-66
2024/04/14 06:43:30;;;;;;;0.20;0.10;;;;;;;-146.84;100.00;66378.44;5483491;26;20826;-66
2024/04/14 06:45:56;;;;;;;0.20;0.10;;;;;;;-146.84;100.00;66378.44;5481407;26;20318;-66
2024/04/14 06:48:23;;;;;;;0.20;0.10;;;;;;;-146.84;100.00;66378.44;5491695;25;20326;-66
2024/04/14 06:50:49;;;;;;;0.20;0.10;;;;;;;-146.84;100.00;66378.44;5496666;25;20233;-67
2024/04/14 06:53:18;;;;;;;0.20;0.10;;;;;;;-146.84;100.00;66378.44;5484464;26;20655;-66
2024/04/14 06:55:45;;;;;;;0.20;0.10;;;;;;;-146.84;100.00;66378.44;5481595;26;20223;-67
2024/04/14 06:58:11;;;;;;;0.20;0.10;;;;;;;-146.84;100.00;66378.44;5494432;26;20623;-67
2024/04/14 07:00:38;;;;;;;0.20;0.10;;;;;;;-146.84;100.00;66378.44;5484105;26;20254;-66
2024/04/14 07:03:04;;;;;;;0.20;0.10;;;;;;;-146.84;100.00;66378.44;5482783;26;20335;-67
2024/04/14 07:05:30;;;;;;;0.20;0.10;;;;;;;-146.84;100.00;66378.44;5486643;26;20742;-67
2024/04/14 07:07:56;;;;;;;0.20;0.10;;;;;;;-146.84;100.00;66378.44;5480321;26;20328;-67
2024/04/14 07:10:22;;;;;;;0.20;0.00;;;;;;;-146.84;100.00;66378.44;5495275;26;20272;-67
2024/04/14 07:12:48;;;;;;;0.20;0.10;;;;;;;-146.84;100.00;66378.44;5496531;26;20254;-67
2024/04/14 07:15:14;;;;;;;0.20;0.10;;;;;;;-146.84;100.00;66378.44;5493749;26;20300;-66
2024/04/14 07:17:40;;;;;;;0.20;0.10;;;;;;;-146.84;100.00;66378.44;5500199;26;20334;-67
2024/04/14 07:20:07;;;;;;;0.20;0.10;;;;;;;-146.84;100.00;66378.44;5484283;26;20231;-67
2024/04/14 07:22:33;;;;;;;0.20;0.10;;;;;;;-146.84;100.00;66378.44;5497008;26;20269;-66
2024/04/14 07:25:00;;;;;;;0.20;0.10;;;;;;;-146.84;100.00;66378.44;5470854;26;21133;-67
2024/04/14 07:27:28;;;;;;;0.20;0.10;;;;;;;-146.84;100.00;66378.44;5490776;26;20242;-67
2024/04/14 07:29:55;;;;;;;0.20;0.10;;;;;;;-146.84;100.00;66378.44;5486031;26;20571;-67
2024/04/14 07:32:21;;;;;;;0.20;0.10;;;;;;;-146.84;100.00;66378.44;5506621;25;20238;-68
2024/04/14 07:34:48;;;;;;;0.20;0.10;;;;;;;-146.84;100.00;66378.44;5497992;26;20830;-66
2024/04/14 07:37:14;;;;;;;0.20;0.10;;;;;;;-146.84;100.00;66378.44;5507441;25;20276;-67
2024/04/14 07:39:40;;;;;;;0.20;0.10;;;;;;;-146.84;100.00;66378.44;5492320;26;20888;-67
2024/04/14 07:42:08;;;;;;;0.20;0.10;;;;;;;-146.84;100.00;66378.44;5484652;26;20282;-67
2024/04/14 07:44:34;;;;;;;0.20;0.10;;;;;;;-146.84;100.00;66378.44;5494053;26;20331;-67
2024/04/14 07:47:01;;;;;;;0.20;0.10;;;;;;;-146.84;100.00;66378.44;5506461;26;20234;-67
2024/04/14 07:49:27;;;;;;;0.20;0.10;;;;;;;-146.84;100.00;66378.44;5480328;26;20223;-67
2024/04/14 07:51:53;;;;;;;0.20;0.10;;;;;;;-146.84;100.00;66378.44;5491317;26;20235;-67
2024/04/14 07:54:19;;;;;;;0.20;0.10;;;;;;;-146.84;100.00;66378.44;5483282;26;20224;-67
2024/04/14 07:56:45;;;;;;;0.20;0.10;;;;;;;-146.84;100.00;66378.44;5498606;25;20306;-67
2024/04/14 07:59:11;;;;;;;0.20;0.10;;;;;;;-146.84;100.00;66378.44;5498013;26;20226;-67
2024/04/14 08:01:37;;;;;;;0.20;0.10;;;;;;;-146.84;100.00;66378.44;5514457;25;20243;-67
2024/04/14 08:04:03;;;;;;;0.20;0.10;;;;;;;-146.84;100.00;66378.44;5486878;26;20223;-67
2024/04/14 08:06:30;;;;;;;0.20;0.10;;;;;;;-146.84;100.00;66378.44;5455035;26;20243;-67
2024/04/14 08:08:57;;;;;;;0.20;0.10;;;;;;;-146.84;100.00;66378.44;5484500;26;20223;-67
2024/04/14 08:11:24;;;;;;;0.20;0.10;;;;;;;-146.84;100.00;66378.44;5498734;26;20768;-67
2024/04/14 08:13:51;;;;;;;0.20;0.10;;;;;;;-146.84;100.00;66378.44;5486767;26;20223;-67
2024/04/14 08:16:17;;;;;;;0.20;0.10;;;;;;;-146.84;100.00;66378.44;5515137;25;20243;-67
2024/04/14 08:18:45;;;;;;;0.20;0.10;;;;;;;-146.84;100.00;66378.44;5489255;26;20235;-67
2024/04/14 08:21:11;;;;;;;0.20;0.10;;;;;;;-146.84;100.00;66378.44;5498873;26;20231;-67
2024/04/14 08:23:37;;;;;;;0.20;0.10;;;;;;;-146.84;100.00;66378.44;5508096;26;20775;-67
2024/04/14 08:26:05;;;;;;;0.20;0.10;;;;;;;-146.84;100.00;66378.44;5467385;26;20242;-67
2024/04/14 08:28:31;;;;;;;0.20;0.20;;;;;;;-146.84;100.00;66378.44;5503155;26;20261;-67
2024/04/14 08:30:57;;;;;;;0.20;0.10;;;;;;;-146.84;100.00;66378.44;5484452;26;20738;-67
2024/04/14 08:33:23;;;;;;;0.20;0.10;;;;;;;-146.84;100.00;66378.44;5493865;26;20765;-67
2024/04/14 08:35:50;;;;;;;0.20;0.10;;;;;;;-146.84;100.00;66378.44;5483987;26;20730;-67
2024/04/14 08:38:17;;;;;;;0.20;0.10;;;;;;;-146.84;100.00;66378.44;5493315;26;20227;-67
2024/04/14 08:40:55;;;;;;;0.20;0.10;;;;;;;-146.84;100.00;66378.44;5491541;26;20223;-67
2024/04/14 08:43:22;;;;;;;0.20;0.10;;;;;;;-146.84;100.00;66378.44;5492649;26;20229;-66
2024/04/14 08:45:52;;;;;;;0.20;0.10;;;;;;;-146.84;100.00;66378.44;5492124;26;20290;-66
2024/04/14 08:48:19;;;;;;;0.20;0.10;;;;;;;-146.84;100.00;66378.44;5490718;26;20246;-67
2024/04/14 08:50:46;;;;;;;0.20;0.10;;;;;;;-146.84;100.00;66378.44;5484251;26;20231;-68
2024/04/14 08:53:15;;;;;;;0.20;0.10;;;;;;;-146.84;100.00;66378.44;5488835;26;20261;-67
2024/04/14 08:55:42;;;;;;;0.20;0.10;;;;;;;-146.84;100.00;66378.44;5486331;26;20601;-67
2024/04/14 08:58:09;;;;;;;0.20;0.10;;;;;;;-146.84;100.00;66378.44;5486817;26;20227;-67
2024/04/14 09:00:37;;;;;;;0.20;0.10;;;;;;;-146.84;100.00;66378.44;5498681;26;20314;-67
2024/04/14 09:03:04;;;;;;;0.20;0.10;;;;;;;-146.84;100.00;66378.44;5487151;26;20274;-67
2024/04/14 09:05:34;;;;;;;0.20;0.10;;;;;;;-146.84;100.00;66378.44;5488592;26;20334;-67
2024/04/14 09:08:00;;;;;;;0.20;0.10;;;;;;;-146.84;100.00;66378.44;5488558;26;20379;-67
2024/04/14 09:10:27;;;;;;;0.20;0.10;;;;;;;-146.84;100.00;66378.44;5482159;26;20771;-66
2024/04/14 09:12:56;;;;;;;0.20;0.10;;;;;;;-146.84;100.00;66378.44;5485101;26;20660;-67
2024/04/14 09:15:22;;;;;;;0.20;0.10;;;;;;;-146.84;100.00;66378.44;5481701;26;20226;-66
2024/04/14 09:17:49;;;;;;;0.20;0.10;;;;;;;-146.84;100.00;66378.44;5506804;25;20250;-67
2024/04/14 09:20:15;;;;;;;0.20;0.10;;;;;;;-146.84;100.00;66378.44;5475764;26;20324;-67
2024/04/14 09:22:41;;;;;;;0.20;0.10;;;;;;;-146.84;100.00;66378.44;5508460;25;20230;-67
2024/04/14 09:25:08;;;;;;;0.20;0.10;;;;;;;-146.84;100.00;66378.44;5487658;26;20303;-67
2024/04/14 09:27:34;;;;;;;0.20;0.10;;;;;;;-146.84;100.00;66378.44;5495317;26;20297;-66
2024/04/14 09:30:30;;;;;;;0.20;0.10;;;;;;;-146.84;100.00;66378.44;5461383;26;20231;-67
2024/04/14 09:32:58;;;;;;;0.20;0.10;;;;;;;-146.84;100.00;66378.44;5391146;26;20235;-67
2024/04/14 09:35:25;;;;;;;0.20;0.10;;;;;;;-146.84;100.00;66378.44;5403574;26;20224;-67
2024/04/14 09:37:52;;;;;;;0.20;0.10;;;;;;;-146.84;100.00;66378.44;5393145;26;20247;-67
2024/04/14 09:40:18;;;;;;;0.20;0.10;;;;;;;-146.84;100.00;66378.44;5398106;26;20621;-66
2024/04/14 09:42:45;;;;;;;0.20;0.10;;;;;;;-146.84;100.00;66378.44;5410499;26;20728;-67
2024/04/14 09:45:11;;;;;;;0.20;0.10;;;;;;;-146.84;100.00;66378.44;5430349;26;20303;-67
2024/04/14 09:47:38;;;;;;;0.20;0.10;;;;;;;-146.84;100.00;66378.44;5381547;26;20282;-67
2024/04/14 09:50:08;;;;;;;0.20;0.10;;;;;;;-146.84;100.00;66378.44;5387291;26;20839;-67
2024/04/14 09:52:34;;;;;;;0.20;0.10;;;;;;;-146.84;100.00;66378.44;5390340;26;20225;-67
2024/04/14 09:55:00;;;;;;;0.20;0.15;;;;;;;-146.84;100.00;66378.44;5385188;26;20283;-67
2024/04/14 09:57:26;;;;;;;0.20;0.10;;;;;;;-146.84;100.00;66378.44;5366479;26;20283;-67
2024/04/14 09:59:53;;;;;;;0.20;0.10;;;;;;;-146.84;100.00;66378.44;5410482;26;20231;-67
2024/04/14 10:02:30;;;;;;;0.20;0.10;;;;;;;-146.84;100.00;66378.44;5394931;26;20278;-67
2024/04/14 10:04:57;;;;;;;0.20;0.15;;;;;;;-146.84;100.00;66378.44;5380808;26;20341;-67
2024/04/14 10:07:23;;;;;;;0.20;0.10;;;;;;;-146.84;100.00;66378.44;5393896;26;20555;-67
2024/04/14 10:09:49;;;;;;;0.20;0.10;;;;;;;-146.84;100.00;66378.44;5448546;26;20235;-67
2024/04/14 10:12:19;;;;;;;0.20;0.10;;;;;;;-146.84;100.00;66378.44;5483236;26;20269;-67
2024/04/14 10:14:48;;;;;;;0.20;0.10;;;;;;;-146.84;100.00;66378.44;5480716;26;20230;-67
2024/04/14 10:17:20;;;;;;;0.20;0.10;;;;;;;-146.84;100.00;66378.44;5456358;26;20247;-67
2024/04/14 10:19:55;;;;;;;0.20;0.10;;;;;;;-146.84;100.00;66378.44;5494786;26;20230;-67
2024/04/14 10:22:21;;;;;;;0.20;0.10;;;;;;;-146.84;100.00;66378.44;5482226;26;20278;-67
2024/04/14 10:24:55;;;;;;;0.20;0.10;;;;;;;-146.84;100.00;66378.44;5497134;25;20261;-67
2024/04/14 10:27:22;;;;;;;0.20;0.10;;;;;;;-146.84;100.00;66378.44;5494534;26;20230;-67
2024/04/14 10:30:24;;;;;;;0.20;0.10;;;;;;;-146.84;100.00;66378.44;5463772;26;20323;-67
2024/04/14 10:33:03;;;;;;;0.20;0.10;;;;;;;-146.84;100.00;66378.44;5482413;26;20221;-67
2024/04/14 10:35:29;;;;;;;0.20;0.10;;;;;;;-146.84;100.00;66378.44;5502139;26;20289;-67
2024/04/14 10:37:56;;;;;;;0.20;0.10;;;;;;;-146.84;100.00;66378.44;5486586;26;20746;-67
2024/04/14 10:40:22;;;;;;;0.20;0.10;;;;;;;-146.84;100.00;66378.44;5485382;26;20271;-67
2024/04/14 10:42:49;;;;;;;0.20;0.10;;;;;;;-146.84;100.00;66378.44;5498007;26;20234;-66
2024/04/14 10:45:28;;;;;;;0.20;0.10;;;;;;;-146.84;100.00;66378.44;5481707;26;20287;-67
2024/04/14 10:47:58;;;;;;;0.20;0.10;;;;;;;-146.84;100.00;66378.44;5477727;26;20222;-67
2024/04/14 10:50:27;;;;;;;0.20;0.10;;;;;;;-146.84;100.00;66378.44;5468831;26;20227;-67
2024/04/14 10:52:53;;;;;;;0.20;0.10;;;;;;;-146.84;100.00;66378.44;5480858;26;20231;-67
2024/04/14 10:55:20;;;;;;;0.20;0.10;;;;;;;-146.84;100.00;66378.44;5490220;26;20219;-67
2024/04/14 10:57:46;;;;;;;0.20;0.10;;;;;;;-146.84;100.00;66378.44;5493592;26;20277;-67
2024/04/14 11:00:12;;;;;;;0.20;0.10;;;;;;;-146.84;100.00;66378.44;5500926;26;20256;-67
2024/04/14 11:02:38;;;;;;;0.20;0.10;;;;;;;-146.84;100.00;66378.44;5480229;26;20268;-67
2024/04/14 11:05:05;;;;;;;0.20;0.10;;;;;;;-146.84;100.00;66378.44;5482437;26;20311;-67
2024/04/14 11:07:31;;;;;;;0.20;0.10;;;;;;;-146.84;100.00;66378.44;5492710;26;20717;-67